Time;durP1;ratioP1;P1;durP2;ratioP2;P2;SDS_P1;SDS_P2;PMS_P1;PMS_P2;Temp;Humidity;BMP_temperature;BMP_pressure;BME280_temperature;BME280_humidity;BME280_pressure;Samples;Min_cycle;Max_cycle;Signal;HPM_P1;HPM_P2
2024/02/11 00:01:22;;;;;;;31.23;21.80;;;10.00;99.90;;;;;;5111142;28;20192;-75
2024/02/11 00:03:48;;;;;;;30.70;24.77;;;10.00;99.90;;;;;;5104992;28;20189;-74
2024/02/11 00:06:14;;;;;;;31.23;21.60;;;10.10;99.90;;;;;;5117733;28;20245;-74
2024/02/11 00:08:40;;;;;;;37.57;26.10;;;10.10;99.90;;;;;;5116167;27;20294;-75
2024/02/11 00:11:06;;;;;;;33.53;23.60;;;10.10;99.90;;;;;;5135501;27;20664;-74
2024/02/11 00:13:32;;;;;;;28.13;21.87;;;10.10;99.90;;;;;;5114021;27;20185;-75
2024/02/11 00:15:59;;;;;;;25.97;21.17;;;10.10;99.90;;;;;;5119447;27;20195;-75
2024/02/11 00:18:28;;;;;;;27.93;21.13;;;10.10;99.90;;;;;;5116846;27;20717;-75
2024/02/11 00:20:54;;;;;;;30.17;20.53;;;10.10;99.90;;;;;;5134611;27;20247;-76
2024/02/11 00:23:22;;;;;;;25.33;18.90;;;10.20;99.90;;;;;;5112448;27;20178;-75
2024/02/11 00:25:48;;;;;;;28.17;19.73;;;10.20;99.90;;;;;;5118616;27;20196;-75
2024/02/11 00:28:14;;;;;;;25.97;18.77;;;10.20;99.90;;;;;;5114618;28;20169;-75
2024/02/11 00:30:40;;;;;;;25.87;18.57;;;10.20;99.90;;;;;;5111342;28;20195;-76
2024/02/11 00:33:05;;;;;;;24.40;18.80;;;10.20;99.90;;;;;;5115654;27;20256;-75
2024/02/11 00:35:31;;;;;;;27.80;18.83;;;10.20;99.90;;;;;;5113886;28;20177;-75
2024/02/11 00:37:58;;;;;;;23.27;19.20;;;10.20;99.90;;;;;;5096838;28;20706;-75
2024/02/11 00:40:24;;;;;;;22.70;18.93;;;10.20;99.90;;;;;;5121269;27;20231;-76
2024/02/11 00:42:51;;;;;;;24.43;19.10;;;10.20;99.90;;;;;;5122974;27;20183;-75
2024/02/11 00:45:17;;;;;;;26.57;18.77;;;10.20;99.90;;;;;;5112225;28;20199;-76
2024/02/11 00:47:43;;;;;;;22.20;18.93;;;10.10;99.90;;;;;;5113565;28;20197;-75
2024/02/11 00:50:13;;;;;;;26.33;19.93;;;10.10;99.90;;;;;;5107645;27;20206;-75
2024/02/11 00:52:44;;;;;;;22.37;17.67;;;10.10;99.90;;;;;;5113746;28;20229;-75
2024/02/11 00:55:14;;;;;;;22.23;18.00;;;10.10;99.90;;;;;;5123366;27;20227;-75
2024/02/11 00:57:42;;;;;;;26.20;18.43;;;10.20;99.90;;;;;;5127516;27;20514;-75
2024/02/11 01:00:09;;;;;;;19.83;17.63;;;10.20;99.90;;;;;;5127305;27;20329;-75
2024/02/11 01:02:36;;;;;;;23.47;16.80;;;10.10;99.90;;;;;;5126577;27;20187;-75
2024/02/11 01:05:01;;;;;;;23.57;18.03;;;10.10;99.90;;;;;;5105744;27;20173;-75
2024/02/11 01:07:27;;;;;;;24.93;18.53;;;10.10;99.90;;;;;;5101772;27;20210;-75
2024/02/11 01:09:53;;;;;;;23.17;18.33;;;10.10;99.90;;;;;;5124037;27;20271;-75
2024/02/11 01:12:18;;;;;;;24.83;18.60;;;10.10;99.90;;;;;;5120817;27;20187;-75
2024/02/11 01:14:44;;;;;;;28.87;19.60;;;10.10;99.90;;;;;;5107475;28;20248;-74
2024/02/11 01:17:09;;;;;;;27.30;18.43;;;10.10;99.90;;;;;;5111568;27;20176;-75
2024/02/11 01:19:35;;;;;;;25.83;18.60;;;10.10;99.90;;;;;;5116916;27;20238;-75
2024/02/11 01:22:02;;;;;;;23.30;17.10;;;10.10;99.90;;;;;;5121108;27;20226;-75
2024/02/11 01:24:27;;;;;;;23.00;18.03;;;10.10;99.90;;;;;;5108063;27;20186;-75
2024/02/11 01:26:53;;;;;;;23.90;17.97;;;10.10;99.90;;;;;;5096775;28;20206;-75
2024/02/11 01:29:19;;;;;;;23.90;17.77;;;10.20;99.90;;;;;;5128000;27;20196;-75
2024/02/11 01:31:44;;;;;;;25.97;17.83;;;10.20;99.90;;;;;;5101782;27;20559;-75
2024/02/11 01:34:10;;;;;;;23.13;17.83;;;10.20;99.90;;;;;;5120012;27;20255;-75
2024/02/11 01:36:36;;;;;;;26.53;17.67;;;10.20;99.90;;;;;;5110398;28;20165;-74
2024/02/11 01:39:01;;;;;;;26.90;18.97;;;10.20;99.90;;;;;;5117010;27;20254;-73
2024/02/11 01:41:27;;;;;;;25.43;19.33;;;10.20;99.90;;;;;;5119096;27;20219;-74
2024/02/11 01:43:53;;;;;;;23.57;19.60;;;10.20;99.90;;;;;;5116956;27;20247;-74
2024/02/11 01:46:20;;;;;;;23.80;19.23;;;10.10;99.90;;;;;;5121086;27;20792;-73
2024/02/11 01:48:45;;;;;;;22.87;18.00;;;10.10;99.90;;;;;;5110500;27;20219;-75
2024/02/11 01:51:12;;;;;;;23.60;18.87;;;10.10;99.90;;;;;;5132789;27;20211;-74
2024/02/11 01:53:39;;;;;;;22.73;18.43;;;10.10;99.90;;;;;;5128243;27;20176;-75
2024/02/11 01:56:06;;;;;;;23.93;18.83;;;10.10;99.90;;;;;;5121996;27;20206;-74
2024/02/11 01:58:32;;;;;;;26.10;18.60;;;10.10;99.90;;;;;;5112601;27;20192;-74
2024/02/11 02:00:58;;;;;;;23.50;19.03;;;10.10;99.90;;;;;;5115793;27;20172;-74
2024/02/11 02:03:24;;;;;;;24.70;18.63;;;10.10;99.90;;;;;;5121186;27;20633;-73
2024/02/11 02:05:51;;;;;;;27.30;19.07;;;10.10;99.90;;;;;;5112098;27;20177;-73
2024/02/11 02:08:17;;;;;;;23.27;17.27;;;10.10;99.90;;;;;;5118685;27;20558;-73
2024/02/11 02:10:44;;;;;;;25.43;18.93;;;10.10;99.90;;;;;;5110548;27;20180;-73
2024/02/11 02:13:10;;;;;;;26.47;18.40;;;10.10;99.90;;;;;;5119791;27;20353;-74
2024/02/11 02:15:35;;;;;;;27.13;19.40;;;10.10;99.90;;;;;;5111972;28;20189;-74
2024/02/11 02:18:01;;;;;;;24.47;18.67;;;10.10;99.90;;;;;;5106785;28;20169;-74
2024/02/11 02:20:27;;;;;;;23.10;18.70;;;10.10;99.90;;;;;;5112054;27;20242;-74
2024/02/11 02:22:53;;;;;;;26.30;20.07;;;10.10;99.90;;;;;;5132509;27;20172;-74
2024/02/11 02:25:19;;;;;;;26.20;19.77;;;10.10;99.90;;;;;;5132556;27;20164;-74
2024/02/11 02:27:44;;;;;;;28.77;19.00;;;10.10;99.90;;;;;;5113409;27;20287;-73
2024/02/11 02:30:11;;;;;;;25.40;19.37;;;10.10;99.90;;;;;;5121828;27;20389;-74
2024/02/11 02:32:36;;;;;;;27.20;20.13;;;10.10;99.90;;;;;;5119815;27;20177;-74
2024/02/11 02:35:03;;;;;;;27.87;19.37;;;10.10;99.90;;;;;;5111853;28;20618;-74
2024/02/11 02:37:29;;;;;;;27.60;20.43;;;10.10;99.90;;;;;;5112973;27;20173;-74
2024/02/11 02:39:55;;;;;;;28.67;20.23;;;10.10;99.90;;;;;;5123491;27;20207;-73
2024/02/11 02:42:21;;;;;;;26.80;19.40;;;10.10;99.90;;;;;;5128893;27;20215;-73
2024/02/11 02:44:47;;;;;;;23.73;19.73;;;10.10;99.90;;;;;;5098041;28;20180;-73
2024/02/11 02:47:13;;;;;;;25.93;18.47;;;10.10;99.90;;;;;;5121770;27;20204;-73
2024/02/11 02:49:39;;;;;;;29.03;19.23;;;10.10;99.90;;;;;;5117229;27;20252;-73
2024/02/11 02:52:07;;;;;;;25.20;18.80;;;10.10;99.90;;;;;;5121990;27;20186;-73
2024/02/11 02:54:33;;;;;;;23.53;18.53;;;10.10;99.90;;;;;;5110257;28;20668;-74
2024/02/11 02:56:58;;;;;;;24.20;17.97;;;10.10;99.90;;;;;;5116327;27;20188;-74
2024/02/11 02:59:25;;;;;;;23.07;18.10;;;10.10;99.90;;;;;;5115399;27;20729;-74
2024/02/11 03:01:56;;;;;;;23.70;17.97;;;10.10;99.90;;;;;;5124436;27;20172;-74
2024/02/11 03:04:22;;;;;;;22.60;18.93;;;10.10;99.90;;;;;;5101773;28;20526;-73
2024/02/11 03:06:47;;;;;;;24.43;19.10;;;10.10;99.90;;;;;;5093040;28;20250;-74
2024/02/11 03:09:13;;;;;;;29.83;19.37;;;10.10;99.90;;;;;;5103693;28;20192;-73
2024/02/11 03:11:40;;;;;;;26.07;18.90;;;10.10;99.90;;;;;;5103823;28;20175;-74
2024/02/11 03:14:06;;;;;;;26.10;19.20;;;10.10;99.90;;;;;;5097992;28;20160;-73
2024/02/11 03:16:31;;;;;;;27.10;19.77;;;10.10;99.90;;;;;;5111213;28;20184;-73
2024/02/11 03:18:57;;;;;;;26.70;19.27;;;10.10;99.90;;;;;;5101429;28;20669;-74
2024/02/11 03:21:22;;;;;;;24.43;19.17;;;10.10;99.90;;;;;;5120489;28;20180;-74
2024/02/11 03:23:48;;;;;;;24.53;17.87;;;10.10;99.90;;;;;;5131718;28;20561;-73
2024/02/11 03:26:14;;;;;;;22.10;18.43;;;10.10;99.90;;;;;;5121283;28;20196;-73
2024/02/11 03:28:40;;;;;;;25.73;17.70;;;10.10;99.90;;;;;;5113018;28;20270;-73
2024/02/11 03:31:07;;;;;;;24.07;18.47;;;10.10;99.90;;;;;;5118396;28;20173;-73
2024/02/11 03:33:33;;;;;;;22.57;17.70;;;10.00;99.90;;;;;;5110723;28;20252;-73
2024/02/11 03:35:59;;;;;;;27.77;20.23;;;10.00;99.90;;;;;;5110689;28;20165;-73
2024/02/11 03:38:25;;;;;;;26.10;18.67;;;10.00;99.90;;;;;;5116217;28;20186;-73
2024/02/11 03:40:53;;;;;;;23.63;19.27;;;10.00;99.90;;;;;;5122083;28;20277;-73
2024/02/11 03:43:20;;;;;;;22.63;18.77;;;10.00;99.90;;;;;;5106846;27;20268;-72
2024/02/11 03:45:49;;;;;;;22.87;18.73;;;10.00;99.90;;;;;;5136140;27;20178;-73
2024/02/11 03:48:16;;;;;;;23.90;19.10;;;10.00;99.90;;;;;;5103216;28;20648;-73
2024/02/11 03:50:41;;;;;;;25.23;18.40;;;10.00;99.90;;;;;;5126789;27;20193;-73
2024/02/11 03:53:09;;;;;;;23.50;18.47;;;10.00;99.90;;;;;;5115447;28;20181;-73
2024/02/11 03:55:34;;;;;;;27.37;19.07;;;10.00;99.90;;;;;;5096936;28;20254;-73
2024/02/11 03:58:04;;;;;;;26.00;19.03;;;9.90;99.90;;;;;;5107261;27;20260;-73
2024/02/11 04:00:33;;;;;;;22.97;17.57;;;9.90;99.90;;;;;;5115208;27;20644;-72
2024/02/11 04:02:58;;;;;;;22.17;17.97;;;9.90;99.90;;;;;;5115477;28;20177;-73
2024/02/11 04:05:26;;;;;;;22.43;18.60;;;9.90;99.90;;;;;;5111375;28;20207;-73
2024/02/11 04:07:53;;;;;;;29.17;18.70;;;9.90;99.90;;;;;;5112618;28;20246;-73
2024/02/11 04:10:19;;;;;;;27.33;19.30;;;10.00;99.90;;;;;;5124645;27;20716;-73
2024/02/11 04:12:46;;;;;;;23.23;18.67;;;10.00;99.90;;;;;;5112910;28;20217;-72
2024/02/11 04:15:15;;;;;;;26.77;18.63;;;10.00;99.90;;;;;;5121139;27;20176;-72
2024/02/11 04:17:42;;;;;;;21.87;17.83;;;10.00;99.90;;;;;;5094231;27;20180;-72
2024/02/11 04:20:23;;;;;;;25.30;19.20;;;9.90;99.90;;;;;;5097355;28;20243;-72
2024/02/11 04:22:51;;;;;;;22.73;18.87;;;9.90;99.90;;;;;;5099353;28;20262;-72
2024/02/11 04:25:20;;;;;;;23.40;18.13;;;9.90;99.90;;;;;;5097188;28;20317;-72
2024/02/11 04:27:46;;;;;;;22.43;17.97;;;10.00;99.90;;;;;;5112871;27;20193;-71
2024/02/11 04:30:15;;;;;;;26.23;18.80;;;10.00;99.90;;;;;;5103584;27;20193;-72
2024/02/11 04:32:43;;;;;;;24.53;18.60;;;10.00;99.90;;;;;;5107418;27;20263;-72
2024/02/11 04:35:13;;;;;;;26.20;18.40;;;10.00;99.90;;;;;;5100268;28;20164;-72
2024/02/11 04:37:44;;;;;;;25.13;18.40;;;10.00;99.90;;;;;;5114910;28;20183;-72
2024/02/11 04:40:10;;;;;;;24.13;18.30;;;10.00;99.90;;;;;;5121033;27;20211;-72
2024/02/11 04:42:44;;;;;;;26.20;18.87;;;10.00;99.90;;;;;;5115688;27;20207;-72
2024/02/11 04:45:14;;;;;;;26.67;18.53;;;10.00;99.90;;;;;;5119366;27;20230;-72
2024/02/11 04:47:40;;;;;;;25.90;18.13;;;10.00;99.90;;;;;;5114027;28;20200;-72
2024/02/11 04:50:10;;;;;;;22.63;17.63;;;10.00;99.90;;;;;;5119745;27;20220;-71
2024/02/11 04:52:39;;;;;;;25.43;17.93;;;10.00;99.90;;;;;;5112117;27;20180;-72
2024/02/11 04:55:06;;;;;;;23.10;18.47;;;9.90;99.90;;;;;;5108541;28;20173;-72
2024/02/11 04:57:38;;;;;;;26.60;17.80;;;10.00;99.90;;;;;;5123687;27;20191;-72
2024/02/11 05:00:23;;;;;;;22.40;17.57;;;10.00;99.90;;;;;;5121289;27;20196;-72
2024/02/11 05:02:53;;;;;;;20.87;16.07;;;10.00;99.90;;;;;;5120245;27;20184;-72
2024/02/11 05:05:24;;;;;;;18.27;15.20;;;10.00;99.90;;;;;;5113699;28;20173;-72
2024/02/11 05:07:51;;;;;;;18.97;15.57;;;10.10;99.90;;;;;;5095613;27;20282;-72
2024/02/11 05:10:16;;;;;;;19.40;14.37;;;10.10;99.90;;;;;;5107354;27;20189;-71
2024/02/11 05:12:44;;;;;;;16.90;12.37;;;10.10;99.90;;;;;;5094667;28;20237;-72
2024/02/11 05:15:10;;;;;;;16.53;12.80;;;10.10;99.90;;;;;;5113958;28;20645;-72
2024/02/11 05:17:38;;;;;;;10.10;8.27;;;10.10;99.90;;;;;;5111231;28;20219;-72
2024/02/11 05:20:12;;;;;;;8.90;8.10;;;10.10;99.90;;;;;;5109183;27;20197;-71
2024/02/11 05:22:40;;;;;;;7.83;6.17;;;10.00;99.90;;;;;;5122286;27;20675;-71
2024/02/11 05:25:07;;;;;;;5.57;5.07;;;9.80;99.90;;;;;;5115051;28;20192;-72
2024/02/11 05:27:32;;;;;;;6.27;5.63;;;9.60;99.90;;;;;;5114627;28;20208;-72
2024/02/11 05:29:58;;;;;;;6.13;5.50;;;9.40;99.90;;;;;;5112766;27;20687;-73
2024/02/11 05:32:25;;;;;;;6.00;5.60;;;9.30;99.90;;;;;;5121622;27;20176;-73
2024/02/11 05:34:52;;;;;;;8.13;6.37;;;9.10;99.90;;;;;;5112932;28;20177;-74
2024/02/11 05:37:18;;;;;;;6.97;6.33;;;8.90;99.90;;;;;;5131195;27;20179;-73
2024/02/11 05:39:44;;;;;;;7.27;6.67;;;8.80;99.90;;;;;;5241127;22;1450178;-73
2024/02/11 05:42:11;;;;;;;9.87;6.20;;;8.70;99.90;;;;;;5099332;28;20271;-72
2024/02/11 05:44:38;;;;;;;10.37;6.27;;;8.50;99.90;;;;;;5101106;28;20177;-73
2024/02/11 05:47:04;;;;;;;10.07;6.50;;;8.30;99.90;;;;;;5078352;28;20201;-72
2024/02/11 05:49:31;;;;;;;11.40;6.60;;;8.20;99.90;;;;;;5085911;28;20197;-72
2024/02/11 05:51:57;;;;;;;9.77;7.37;;;8.10;99.90;;;;;;5098702;28;20645;-72
2024/02/11 05:54:24;;;;;;;14.00;6.90;;;8.10;99.90;;;;;;5105095;28;20173;-72
2024/02/11 05:56:50;;;;;;;11.90;7.17;;;8.10;99.90;;;;;;5092372;28;20253;-72
2024/02/11 05:59:17;;;;;;;13.83;7.60;;;8.00;99.90;;;;;;5090220;28;20733;-72
2024/02/11 06:01:43;;;;;;;20.27;8.03;;;8.10;99.90;;;;;;5107021;28;20355;-72
2024/02/11 06:04:08;;;;;;;18.00;7.13;;;8.00;99.90;;;;;;5091583;28;20181;-72
2024/02/11 06:06:34;;;;;;;16.07;6.80;;;8.00;99.90;;;;;;5091624;28;20193;-72
2024/02/11 06:08:59;;;;;;;12.97;7.20;;;8.00;99.90;;;;;;5092005;28;20177;-72
2024/02/11 06:11:28;;;;;;;7.73;6.03;;;8.00;99.90;;;;;;5106901;28;20230;-72
2024/02/11 06:13:54;;;;;;;11.60;6.90;;;7.90;99.90;;;;;;5102506;28;20259;-72
2024/02/11 06:16:19;;;;;;;12.90;7.13;;;7.90;99.90;;;;;;5095721;28;20268;-72
2024/02/11 06:18:45;;;;;;;10.70;6.50;;;8.00;99.90;;;;;;5091647;28;20620;-72
2024/02/11 06:21:10;;;;;;;15.23;6.97;;;8.00;99.90;;;;;;5097923;28;20205;-72
2024/02/11 06:23:36;;;;;;;14.40;7.87;;;8.00;99.90;;;;;;5092100;28;20256;-72
2024/02/11 06:26:04;;;;;;;15.27;7.20;;;8.10;99.90;;;;;;5092093;28;20234;-70
2024/02/11 06:28:30;;;;;;;14.03;6.90;;;8.10;99.90;;;;;;5091305;28;20192;-71
2024/02/11 06:30:55;;;;;;;13.37;7.60;;;8.20;99.90;;;;;;5095187;28;20193;-71
2024/02/11 06:33:21;;;;;;;22.07;7.67;;;8.20;99.90;;;;;;5104282;28;20658;-71
2024/02/11 06:35:46;;;;;;;10.67;7.07;;;8.20;99.90;;;;;;5089993;28;20193;-71
2024/02/11 06:38:12;;;;;;;16.17;8.30;;;8.30;99.90;;;;;;5096096;28;20208;-71
2024/02/11 06:40:39;;;;;;;15.30;8.40;;;8.30;99.90;;;;;;5096815;28;20680;-71
2024/02/11 06:43:11;;;;;;;18.03;7.53;;;8.30;99.90;;;;;;5092194;28;20177;-71
2024/02/11 06:45:40;;;;;;;14.93;7.67;;;8.30;99.90;;;;;;5090742;28;20177;-71
2024/02/11 06:48:09;;;;;;;19.40;8.20;;;8.30;99.90;;;;;;5088411;28;20546;-71
2024/02/11 06:50:34;;;;;;;12.77;7.17;;;8.40;99.90;;;;;;5090702;28;20205;-72
2024/02/11 06:53:00;;;;;;;14.73;7.27;;;8.40;99.90;;;;;;5091546;28;20595;-71
2024/02/11 06:55:25;;;;;;;9.80;7.20;;;8.40;99.90;;;;;;5099717;28;20177;-71
2024/02/11 06:57:51;;;;;;;12.20;7.43;;;8.50;99.90;;;;;;5088828;28;20201;-72
2024/02/11 07:00:20;;;;;;;7.80;6.10;;;8.50;99.90;;;;;;5097832;28;20205;-73
2024/02/11 07:02:47;;;;;;;13.57;7.00;;;8.40;99.90;;;;;;5093667;28;20214;-72
2024/02/11 07:05:15;;;;;;;11.70;6.77;;;8.50;99.90;;;;;;5099286;28;20231;-71
2024/02/11 07:07:42;;;;;;;8.40;6.53;;;8.60;99.90;;;;;;5094747;28;20266;-71
2024/02/11 07:10:08;;;;;;;10.63;6.37;;;8.60;99.90;;;;;;5098188;28;20204;-71
2024/02/11 07:12:34;;;;;;;11.37;5.70;;;8.60;99.90;;;;;;5091519;28;20178;-71
2024/02/11 07:15:00;;;;;;;9.10;6.40;;;8.70;99.90;;;;;;5088893;28;20618;-71
2024/02/11 07:17:27;;;;;;;8.80;5.37;;;8.70;99.90;;;;;;5100276;28;20173;-72
2024/02/11 07:19:52;;;;;;;8.87;5.50;;;8.70;99.90;;;;;;5093907;28;20614;-71
2024/02/11 07:22:18;;;;;;;8.60;5.63;;;8.70;99.90;;;;;;5097367;28;20272;-71
2024/02/11 07:24:44;;;;;;;6.20;5.57;;;8.70;99.90;;;;;;5099360;28;20577;-71
2024/02/11 07:27:13;;;;;;;7.33;5.63;;;8.80;99.90;;;;;;5103694;28;20296;-71
2024/02/11 07:29:43;;;;;;;12.17;5.60;;;8.70;99.90;;;;;;5089660;28;20578;-71
2024/02/11 07:32:10;;;;;;;8.23;6.00;;;8.70;99.90;;;;;;5095504;28;20629;-71
2024/02/11 07:34:37;;;;;;;5.97;5.47;;;8.80;99.90;;;;;;5115650;28;20169;-72
2024/02/11 07:37:03;;;;;;;7.17;5.97;;;8.70;99.90;;;;;;5107899;28;20173;-72
2024/02/11 07:39:32;;;;;;;6.77;5.20;;;8.70;99.90;;;;;;5095309;28;20221;-72
2024/02/11 07:42:01;;;;;;;10.70;6.33;;;8.70;99.90;;;;;;5101349;28;20169;-72
2024/02/11 07:44:26;;;;;;;9.90;6.20;;;8.80;99.90;;;;;;5115552;28;20176;-72
2024/02/11 07:46:53;;;;;;;11.77;6.20;;;8.80;99.90;;;;;;5105736;28;20203;-72
2024/02/11 07:49:20;;;;;;;9.20;6.43;;;8.80;99.90;;;;;;5098802;28;20189;-72
2024/02/11 07:51:45;;;;;;;7.13;6.43;;;8.80;99.90;;;;;;5094339;28;20293;-72
2024/02/11 07:54:11;;;;;;;10.43;5.90;;;8.90;99.90;;;;;;5093696;28;20181;-71
2024/02/11 07:56:38;;;;;;;10.13;6.03;;;8.90;99.90;;;;;;5086374;28;20243;-71
2024/02/11 07:59:04;;;;;;;11.07;6.23;;;8.90;99.90;;;;;;5111182;28;20222;-71
2024/02/11 08:01:34;;;;;;;7.47;6.33;;;9.00;99.90;;;;;;5106136;28;20649;-71
2024/02/11 08:04:00;;;;;;;8.20;6.77;;;8.90;99.90;;;;;;5099543;28;20681;-71
2024/02/11 08:06:26;;;;;;;7.77;6.30;;;8.90;99.90;;;;;;5092452;28;20204;-72
2024/02/11 08:08:54;;;;;;;10.60;6.80;;;8.90;99.90;;;;;;5101620;28;20174;-72
2024/02/11 08:11:23;;;;;;;9.13;7.13;;;8.90;99.90;;;;;;5095851;28;20219;-72
2024/02/11 08:13:53;;;;;;;10.33;7.53;;;9.00;99.90;;;;;;5099196;28;20209;-71
2024/02/11 08:16:21;;;;;;;12.57;6.87;;;9.00;99.90;;;;;;5092630;28;20188;-71
2024/02/11 08:18:47;;;;;;;9.47;6.57;;;9.10;99.90;;;;;;5105155;28;20211;-71
2024/02/11 08:21:13;;;;;;;17.33;7.40;;;9.10;99.90;;;;;;5093756;28;20286;-72
2024/02/11 08:23:39;;;;;;;8.57;6.67;;;9.20;99.90;;;;;;5094357;28;20195;-71
2024/02/11 08:26:06;;;;;;;9.50;6.83;;;9.10;99.90;;;;;;5094393;28;20186;-71
2024/02/11 08:28:32;;;;;;;11.50;6.50;;;9.20;99.90;;;;;;5098193;28;20284;-71
2024/02/11 08:30:58;;;;;;;10.27;6.90;;;9.30;99.90;;;;;;5070323;28;20202;-71
2024/02/11 08:33:24;;;;;;;10.40;6.90;;;9.20;99.90;;;;;;5072795;28;20186;-71
2024/02/11 08:35:51;;;;;;;9.57;6.50;;;9.30;99.90;;;;;;5087163;28;20182;-71
2024/02/11 08:38:16;;;;;;;12.70;7.53;;;9.30;99.90;;;;;;5098732;28;20189;-71
2024/02/11 08:40:43;;;;;;;8.77;6.73;;;9.30;99.90;;;;;;5095003;28;20215;-71
2024/02/11 08:43:08;;;;;;;10.83;6.60;;;9.30;99.90;;;;;;5114139;28;20204;-71
2024/02/11 08:45:35;;;;;;;7.50;6.30;;;9.30;99.90;;;;;;5098996;28;20217;-71
2024/02/11 08:48:00;;;;;;;6.37;5.70;;;9.30;99.90;;;;;;5088361;28;20757;-71
2024/02/11 08:50:26;;;;;;;10.83;6.07;;;9.30;99.90;;;;;;5088117;28;20276;-71
2024/02/11 08:52:52;;;;;;;7.77;5.40;;;9.30;99.90;;;;;;5081361;28;20221;-71
2024/02/11 08:55:18;;;;;;;9.00;6.10;;;9.30;99.90;;;;;;5081136;28;20178;-71
2024/02/11 08:57:48;;;;;;;8.83;6.77;;;9.20;99.90;;;;;;5084710;28;20227;-71
2024/02/11 09:00:34;;;;;;;8.83;5.97;;;9.30;99.90;;;;;;5083257;28;20201;-71
2024/02/11 09:03:00;;;;;;;10.93;6.23;;;9.20;99.90;;;;;;5084789;28;20189;-71
2024/02/11 09:05:26;;;;;;;9.77;6.00;;;9.20;99.90;;;;;;5086113;28;20191;-72
2024/02/11 09:07:51;;;;;;;12.13;7.80;;;9.30;99.90;;;;;;5086699;28;20588;-72
2024/02/11 09:10:17;;;;;;;9.70;7.00;;;9.30;99.90;;;;;;5084154;28;20258;-71
2024/02/11 09:12:42;;;;;;;10.00;6.03;;;9.40;99.90;;;;;;5095288;28;20177;-72
2024/02/11 09:15:09;;;;;;;6.00;5.40;;;9.40;99.90;;;;;;5093547;28;20189;-71
2024/02/11 09:17:40;;;;;;;8.97;5.97;;;9.50;99.90;;;;;;5092932;28;20474;-70
2024/02/11 09:20:07;;;;;;;10.40;5.77;;;9.60;99.90;;;;;;5096513;28;20200;-71
2024/02/11 09:22:32;;;;;;;9.53;5.87;;;9.60;99.90;;;;;;5095857;28;20177;-71
2024/02/11 09:24:58;;;;;;;9.37;5.93;;;9.70;99.90;;;;;;5087555;28;20204;-72
2024/02/11 09:27:24;;;;;;;6.63;5.20;;;9.70;99.90;;;;;;5083030;28;20202;-72
2024/02/11 09:29:49;;;;;;;9.67;6.20;;;9.70;99.90;;;;;;5087041;28;20209;-72
2024/02/11 09:32:16;;;;;;;7.53;5.93;;;9.80;99.90;;;;;;5093086;28;20172;-71
2024/02/11 09:34:42;;;;;;;7.07;5.53;;;9.90;99.90;;;;;;5100397;28;20174;-71
2024/02/11 09:37:08;;;;;;;6.03;5.33;;;10.00;99.90;;;;;;5076404;28;20201;-71
2024/02/11 09:39:33;;;;;;;8.03;6.00;;;10.10;99.90;;;;;;5087136;28;20330;-71
2024/02/11 09:41:59;;;;;;;9.03;5.80;;;10.10;99.90;;;;;;5083923;28;20182;-71
2024/02/11 09:44:28;;;;;;;8.03;6.00;;;10.20;99.90;;;;;;5092652;28;20177;-71
2024/02/11 09:46:54;;;;;;;8.13;6.07;;;10.30;99.90;;;;;;5080990;28;20201;-72
2024/02/11 09:49:21;;;;;;;10.93;5.73;;;10.30;99.90;;;;;;5085733;28;20212;-71
2024/02/11 09:51:48;;;;;;;10.87;6.20;;;10.40;99.90;;;;;;5084933;28;20239;-71
2024/02/11 09:54:15;;;;;;;6.93;5.77;;;10.40;99.90;;;;;;5089327;28;20181;-71
2024/02/11 09:56:42;;;;;;;7.53;5.87;;;10.50;99.90;;;;;;5088356;28;20181;-71
2024/02/11 09:59:09;;;;;;;8.23;5.87;;;10.60;99.90;;;;;;5091262;28;20212;-71
2024/02/11 10:01:38;;;;;;;9.03;5.70;;;10.60;99.90;;;;;;5106360;28;20222;-71
2024/02/11 10:04:06;;;;;;;7.77;5.87;;;10.70;99.90;;;;;;5089949;28;20698;-71
2024/02/11 10:06:39;;;;;;;7.30;6.30;;;10.60;99.90;;;;;;5091813;28;20568;-71
2024/02/11 10:09:05;;;;;;;8.13;6.77;;;10.60;99.90;;;;;;5096430;28;20637;-71
2024/02/11 10:11:32;;;;;;;8.47;6.07;;;10.60;99.90;;;;;;5112551;28;20263;-71
2024/02/11 10:13:59;;;;;;;9.03;5.90;;;10.60;99.90;;;;;;5091290;28;20196;-71
2024/02/11 10:16:29;;;;;;;6.60;5.90;;;10.60;99.90;;;;;;5081273;28;20181;-71
2024/02/11 10:18:57;;;;;;;6.10;5.30;;;10.70;99.90;;;;;;5087312;28;20735;-71
2024/02/11 10:21:23;;;;;;;8.93;6.27;;;10.80;99.90;;;;;;5093328;28;20294;-71
2024/02/11 10:23:50;;;;;;;5.90;5.30;;;10.80;99.90;;;;;;5083530;28;20182;-72
2024/02/11 10:26:15;;;;;;;9.13;5.97;;;10.90;99.90;;;;;;5087265;28;20608;-71
2024/02/11 10:28:44;;;;;;;7.43;6.00;;;11.00;99.90;;;;;;5087545;28;20216;-71
2024/02/11 10:31:10;;;;;;;8.40;5.83;;;11.20;99.90;;;;;;5085432;28;20300;-72
2024/02/11 10:33:37;;;;;;;13.53;8.10;;;11.30;99.90;;;;;;5100669;28;20205;-71
2024/02/11 10:36:03;;;;;;;7.67;6.90;;;11.40;99.90;;;;;;5087527;28;20570;-71
2024/02/11 10:38:33;;;;;;;7.47;6.13;;;11.60;99.90;;;;;;5107225;28;20180;-71
2024/02/11 10:41:01;;;;;;;6.80;6.10;;;11.80;99.90;;;;;;5082262;28;20237;-71
2024/02/11 10:43:30;;;;;;;7.23;5.30;;;11.90;99.90;;;;;;5089801;28;20173;-71
2024/02/11 10:45:56;;;;;;;7.10;6.23;;;12.00;99.90;;;;;;5089601;28;20669;-72
2024/02/11 10:48:22;;;;;;;9.83;6.40;;;12.10;99.90;;;;;;5083593;28;20366;-71
2024/02/11 10:51:08;;;;;;;6.53;5.70;;;12.20;99.90;;;;;;5086755;28;20711;-71
2024/02/11 10:53:36;;;;;;;7.43;6.17;;;12.30;99.90;;;;;;5086953;28;20231;-70
2024/02/11 10:56:14;;;;;;;6.03;5.53;;;12.40;99.90;;;;;;5090211;28;20180;-71
2024/02/11 10:58:44;;;;;;;8.63;5.37;;;12.50;99.90;;;;;;5094794;28;20530;-71
2024/02/11 11:01:12;;;;;;;5.83;5.33;;;12.50;99.90;;;;;;5094695;28;20220;-71
2024/02/11 11:03:40;;;;;;;7.47;5.90;;;12.60;99.90;;;;;;5084530;28;20690;-71
2024/02/11 11:06:10;;;;;;;7.27;5.87;;;12.50;99.90;;;;;;5081368;28;20673;-71
2024/02/11 11:08:41;;;;;;;5.60;5.10;;;12.40;93.50;;;;;;5096428;28;20525;-72
2024/02/11 11:11:07;;;;;;;6.60;5.33;;;12.40;99.90;;;;;;5089175;28;20568;-71
2024/02/11 11:13:32;;;;;;;7.47;5.27;;;12.30;46.70;;;;;;5093866;28;20169;-71
2024/02/11 11:16:02;;;;;;;9.17;6.17;;;12.30;43.60;;;;;;5081439;28;20201;-71
2024/02/11 11:18:33;;;;;;;8.00;5.93;;;12.40;99.90;;;;;;5086959;28;20670;-71
2024/02/11 11:21:04;;;;;;;10.93;5.63;;;12.40;99.80;;;;;;5085453;28;20717;-71
2024/02/11 11:23:30;;;;;;;7.23;5.70;;;12.50;1.00;;;;;;5091720;28;20178;-71
2024/02/11 11:25:56;;;;;;;8.17;5.67;;;12.50;1.00;;;;;;5089592;28;20274;-73
2024/02/11 11:28:32;;;;;;;6.23;5.33;;;12.50;1.00;;;;;;5086493;28;20228;-70
2024/02/11 11:30:58;;;;;;;6.10;5.50;;;12.60;1.00;;;;;;5084705;28;20208;-71
2024/02/11 11:33:34;;;;;;;8.70;5.47;;;12.70;1.00;;;;;;5087658;28;20188;-71
2024/02/11 11:36:01;;;;;;;5.73;4.67;;;12.80;1.00;;;;;;5085120;28;20185;-71
2024/02/11 11:38:27;;;;;;;5.10;4.53;;;13.00;1.00;;;;;;5092014;28;20645;-71
2024/02/11 11:40:56;;;;;;;4.67;4.13;;;13.10;1.00;;;;;;5090923;28;20244;-71
2024/02/11 11:43:24;;;;;;;5.77;3.87;;;13.30;1.00;;;;;;5085859;28;20188;-71
2024/02/11 11:45:57;;;;;;;5.43;4.03;;;13.60;1.00;;;;;;5087888;28;20177;-71
2024/02/11 11:48:24;;;;;;;4.27;3.87;;;13.70;1.00;;;;;;5084358;28;20351;-71
2024/02/11 11:51:10;;;;;;;6.20;3.70;;;13.90;1.00;;;;;;5089796;28;20190;-71
2024/02/11 11:53:36;;;;;;;5.80;3.70;;;13.90;1.00;;;;;;5089897;28;20188;-71
2024/02/11 11:56:03;;;;;;;5.63;3.50;;;13.70;1.00;;;;;;5098332;28;20254;-71
2024/02/11 11:58:30;;;;;;;5.83;3.97;;;13.60;1.00;;;;;;5097060;28;20174;-71
2024/02/11 12:01:04;;;;;;;5.10;3.77;;;13.40;1.00;;;;;;5087540;28;20285;-71
2024/02/11 12:03:31;;;;;;;6.43;3.73;;;13.20;1.00;;;;;;5087144;28;20231;-71
2024/02/11 12:05:57;;;;;;;3.83;3.43;;;13.10;1.00;;;;;;5103396;28;20196;-71
2024/02/11 12:08:27;;;;;;;4.50;3.63;;;13.30;1.00;;;;;;5093888;28;20217;-71
2024/02/11 12:10:56;;;;;;;4.27;3.40;;;13.70;1.00;;;;;;5093207;28;20197;-71
2024/02/11 12:13:23;;;;;;;3.63;3.30;;;13.80;1.00;;;;;;5089214;28;20173;-70
2024/02/11 12:15:49;;;;;;;4.13;3.67;;;13.70;1.00;;;;;;5092411;28;20269;-71
2024/02/11 12:18:17;;;;;;;8.70;4.53;;;13.50;1.00;;;;;;5091654;28;20269;-70
2024/02/11 12:20:46;;;;;;;6.47;4.13;;;13.40;1.00;;;;;;5093337;28;20599;-71
2024/02/11 12:23:14;;;;;;;5.07;3.53;;;13.50;1.00;;;;;;5089367;28;20526;-71
2024/02/11 12:25:41;;;;;;;3.43;3.13;;;13.80;1.00;;;;;;5088261;28;20650;-71
2024/02/11 12:28:06;;;;;;;4.20;3.43;;;13.90;1.00;;;;;;5092166;28;20568;-72
2024/02/11 12:30:33;;;;;;;4.43;3.20;;;14.10;1.00;;;;;;5093412;28;20285;-71
2024/02/11 12:32:59;;;;;;;7.73;3.60;;;14.20;1.00;;;;;;5093301;28;20169;-71
2024/02/11 12:35:31;;;;;;;5.27;3.30;;;14.10;1.00;;;;;;5093102;28;20235;-71
2024/02/11 12:37:58;;;;;;;4.70;3.57;;;13.90;1.00;;;;;;5087719;28;20226;-72
2024/02/11 12:40:24;;;;;;;6.87;3.60;;;13.90;1.00;;;;;;5089138;28;20209;-71